Tiempo atmosférico en la estación meteorológica de Tornavacas, Cáceres (991 m.)



Fecha
DESCASC
Temp. máxima en grados centígrados (hora)
DESCASC
Temp. mínima en grados centígrados (hora)
DESCASC
Temp. media en grados centígrados
DESCASC
Racha de viento máxima en m/sg (hora)
DESCASC
Velocidad máxima media en intervalos de 10 minutos(hora)
DESCASC
Precipitaciones diarias en mm
DESCASC
Precipitaciones de 00:00 a 06:00 en mm
DESCASC
Precipitaciones de 06:00 a 12:00 en mm
DESCASC
Precipitaciones de 12:00 a 18:00 en mm
DESCASC
Precipitaciones de 18:00 a 24:00 en mm
DESCASC
08-12-2019 11.1 (12:20) 4.6 (04:00) 7.9 12.5 (09:20) 8.33 (09:10) 1.2 0 0 1.2 0
07-12-2019 12.9 (16:20) 4.4 (09:00) 8.6 11.11 (21:20) 7.78 (20:40) 0 0 0 0 0
06-12-2019 12.8 (15:20) 5.1 (08:00) 9 9.17 (05:20) 5.56 (00:10) 0 0 0 0 0
05-12-2019 10.2 (16:30) 4.1 (00:00) 7.1 12.22 (06:20) 8.61 (06:30) 0 0 0 0 0
04-12-2019 8.3 (13:00) 3.2 (00:00) 5.8 10.28 (21:50) 6.39 (22:50) 0 0 0 0 0
03-12-2019 10.3 (15:00) 0.9 (00:00) 5.6 12.5 (04:20) 9.44 (06:10) 0 0 0 0 0
02-12-2019 7.9 (15:50) 3.3 (00:00) 5.6 13.33 (14:40) 8.33 (14:30) 17 17 0 0 0
01-12-2019 8.5 (16:20) 3.1 (00:00) 5.8 11.39 (23:10) 7.22 (23:20) 24.6 2.4 14.6 2.6 5
30-11-2019 10.7 (00:20) 3.7 (00:00) 7.2 13.33 (16:20) 8.33 (11:50) 26.6 5 3.8 13.6 4.2
29-11-2019 10.8 (14:20) 9.6 (00:00) 10.2 7.5 (01:20) 4.44 (00:40) 41.2 15.2 16.6 3.2 6.2
28-11-2019 9.6 (23:20) 7 (00:00) 8.3 11.39 (16:10) 7.22 (15:30) 9.6 1.4 1.6 2.2 4.4
27-11-2019 9.5 (00:00) 5.6 (00:00) 7.5 12.22 (00:20) 6.67 (00:20) 1.2 1 0 0.2 0
26-11-2019 11 (18:30) 8.4 (00:00) 9.7 16.11 (20:30) 9.72 (18:50) 30.2 0.2 3.8 19.6 6.6
25-11-2019 13.8 (15:00) 7 (00:00) 10.4 9.44 (02:10) 6.94 (02:00) 7 7 0 0 0
24-11-2019 11.1 (14:10) 2.7 (00:00) 6.9 11.67 (23:20) 6.67 (08:40) 2.6 0 0 0 2.6
23-11-2019 9.5 (15:10) 4 (00:00) 6.8 19.72 (10:40) 8.89 (02:20) 4.2 4.2 0 0 0
22-11-2019 9.5 (15:50) 5.7 (00:00) 7.6 17.22 (23:30) 9.17 (17:10) 38 8 16 10.4 3.6
21-11-2019 7.9 (17:10) 3.7 (00:00) 5.8 7.78 (14:10) 5.28 (13:30) 10.6 2.2 6.4 0.6 1.4
20-11-2019 4.6 (01:20) 2.7 (00:00) 3.6 6.11 (12:40) 3.89 (12:40) 7.2 0.2 3.4 3.4 0.2
19-11-2019 8.1 (12:00) 2.2 (00:00) 5.2 7.78 (01:40) 6.11 (01:40) 0 0 0 0 0
18-11-2019 8.9 (15:20) 2.9 (00:00) 5.9 12.22 (00:40) 7.5 (00:50) 0 0 0 0 0
17-11-2019 7.5 (20:50) 2.4 (00:00) 5 14.17 (22:00) 8.33 (22:00) 14.8 0 1.8 9.2 3.8
16-11-2019 9.9 (15:40) 0.8 (00:00) 5.3 11.67 (05:00) 6.94 (04:40) 0 0 0 0 0
15-11-2019 6.5 (15:20) 1.8 (00:00) 4.1 15.56 (03:40) 6.67 (08:10) 0 0 0 0 0
14-11-2019 7.9 (02:40) 2.6 (00:00) 5.3 21.39 (18:50) 8.61 (18:50) 14.6 3 3.4 6.8 1.4
13-11-2019 15.9 (15:10) 6.3 (00:00) 11.1 17.22 (11:00) 9.17 (11:10) 12.4 11.4 1 0 0
12-11-2019 11.6 (16:30) 3.1 (00:00) 7.4 14.17 (05:20) 8.89 (07:30) 0.4 0 0 0 0.4
11-11-2019 13.1 (14:40) 4.8 (06:50) 9 11.39 (04:20) 8.06 (03:00) 0 0 0 0 0

Gráficas

Temp. máximas Temp. mínimas Temp. medias Precipitaciones Rachas de viento máximas Velocidades máximas media en intervalos de 10 minutos

Datos horarios

Fecha y hora oficial Temperatura (ºC) Velocidad del viento (km/h) Dirección del viento Racha (km/h) Dirección de racha Precipitación (mm) Presión (hPa) Tendencia (hPa) Humedad (%)
2019-12-10 23:00:00 11.3 17 Este 30 Este 0 -- -- 38
2019-12-10 22:00:00 9.9 22 Este 30 Este 0 -- -- 39
2019-12-10 21:00:00 6.2 3 Nordeste 26 Este 0 -- -- 73
2019-12-10 20:00:00 10.6 12 Este 25 Este 0 -- -- 32
2019-12-10 19:00:00 7.2 2 Sur 23 Este 0 -- -- 67
2019-12-10 18:00:00 9.5 11 Este 21 Sudeste 0 -- -- 38
2019-12-10 17:00:00 8.4 2 Sudoeste 9 Nordeste 0 -- -- 65
2019-12-10 16:00:00 8.8 0 Calma 30 Sudoeste 0 -- -- 62
2019-12-10 15:00:00 12 12 Nordeste 23 Nordeste 0 -- -- 36
2019-12-10 14:00:00 11.3 9 Oeste 14 Sudoeste 0 -- -- 40
2019-12-10 13:00:00 12.1 2 Sudoeste 15 Sudoeste 0 -- -- 32
2019-12-10 12:00:00 11.6 6 Sudoeste 22 Nordeste 0 -- -- 34
2019-12-10 11:00:00 7.8 2 Nordeste 5 Este 0 -- -- 49
2019-12-10 10:00:00 5.5 6 Este 8 Este 0 -- -- 52
2019-12-10 09:00:00 3.9 0 Calma 13 Oeste 0 -- -- 56
2019-12-10 08:00:00 4.5 2 Nordeste 35 Nordeste 0 -- -- 62
2019-12-10 07:00:00 8 22 Nordeste 37 Nordeste 0 -- -- 35
2019-12-10 06:00:00 8.7 23 Este 39 Este 0 -- -- 33
2019-12-10 05:00:00 9.3 18 Este 39 Este 0 -- -- 32
2019-12-10 04:00:00 5.9 26 Nordeste 40 Nordeste 0 -- -- 48
2019-12-10 03:00:00 8 22 Este 37 Este 0 -- -- 38
2019-12-10 02:00:00 7.7 22 Este 41 Nordeste 0 -- -- 38
2019-12-10 01:00:00 6.7 26 Nordeste 41 Nordeste 0 -- -- 47
2019-12-10 00:00:00 8.5 18 Este 37 Este 0 -- -- 38
2019-12-09 23:00:00 7.7 21 Nordeste 30 Este 0 -- -- 44
2019-12-09 22:00:00 8.9 23 Este 40 Este 0 -- -- 45
2019-12-09 21:00:00 8.1 23 Este 44 Este 0 -- -- 55
2019-12-09 20:00:00 8.9 21 Este 40 Este 0 -- -- 55
2019-12-09 19:00:00 10.8 14 Nordeste 26 Nordeste 0 -- -- 37
2019-12-09 18:00:00 11.3 9 Nordeste 13 Este 0 -- -- 32
2019-12-09 17:00:00 11.6 8 Sudoeste 22 Nordeste 0 -- -- 68
2019-12-09 16:00:00 14.6 10 Este 31 Nordeste 0 -- -- 25
2019-12-09 15:00:00 15.5 15 Este 34 Este 0 -- -- 21
2019-12-09 14:00:00 15.2 13 Este 32 Este 0 -- -- 22
2019-12-09 13:00:00 14.7 12 Este 32 Nordeste 0 -- -- 21
2019-12-09 12:00:00 12.9 15 Este 40 Nordeste 0 -- -- 31
2019-12-09 11:00:00 8.4 29 Nordeste 54 Nordeste 0 -- -- 42
2019-12-09 10:00:00 5.6 34 Nordeste 48 Nordeste 0 -- -- 61
2019-12-09 09:00:00 5.4 30 Nordeste 44 Nordeste 0 -- -- 69
2019-12-09 08:00:00 11.8 24 Este 40 Este 0 -- -- 20
2019-12-09 07:00:00 9.9 20 Este 36 Este 0 -- -- 34
2019-12-09 06:00:00 9.6 22 Este 45 Este 0 -- -- 54
2019-12-09 05:00:00 8.9 29 Este 49 Este 0 -- -- 70
2019-12-09 04:00:00 8.1 28 Este 46 Este 0 -- -- 87
2019-12-09 03:00:00 8.4 26 Nordeste 41 Este 0 -- -- 90
2019-12-09 02:00:00 8.7 23 Este 38 Este 0 -- -- 91
2019-12-09 01:00:00 9.3 21 Este 34 Nordeste 0 -- -- 90
2019-12-09 00:00:00 10.3 15 Este 34 Este 0 -- -- 86
2019-12-08 23:00:00 10.6 11 Nordeste 32 Este 0 -- -- 85
2019-12-08 22:00:00 10.3 16 Este 28 Este 0 -- -- 90
2019-12-08 21:00:00 10.1 8 Nordeste 25 Nordeste 0 -- -- 93
2019-12-08 20:00:00 9.6 4 Este 12 Nordeste 0 -- -- 93
2019-12-08 19:00:00 10.2 8 Nordeste 29 Nordeste 0 -- -- 89
2019-12-08 18:00:00 10 16 Nordeste 34 Nordeste 0 -- -- 90
2019-12-08 17:00:00 9.8 18 Nordeste 40 Nordeste 0.4 -- -- 88
2019-12-08 16:00:00 10.2 18 Nordeste 31 Nordeste 0.8 -- -- 87
2019-12-08 15:00:00 8.9 3 Noroeste 15 Oeste 0 -- -- 77
2019-12-08 14:00:00 10.3 0 Calma 5 Sudoeste 0 -- -- 69
2019-12-08 13:00:00 10.1 0 Calma 12 Oeste 0 -- -- 68
2019-12-08 12:00:00 10.7 3 Oeste 9 Oeste 0 -- -- 67
2019-12-08 11:00:00 10.2 3 Sudoeste 36 Este 0 -- -- 66
2019-12-08 10:00:00 10 17 Este 45 Nordeste 0 -- -- 62
2019-12-08 09:00:00 8.5 28 Nordeste 39 Nordeste 0 -- -- 64
2019-12-08 08:00:00 8.5 25 Este 38 Este 0 -- -- 61
2019-12-08 07:00:00 8.7 23 Este 42 Este 0 -- -- 59
2019-12-08 06:00:00 8.7 24 Este 39 Este 0 -- -- 60
2019-12-08 05:00:00 8.7 20 Este 27 Nordeste 0 -- -- 62
2019-12-08 04:00:00 4.6 5 Este 12 Sudeste 0 -- -- 85
2019-12-08 03:00:00 4.9 5 Este 9 Este 0 -- -- 86
2019-12-08 02:00:00 6.9 3 Norte 31 Nordeste 0 -- -- 80
2019-12-08 01:00:00 9.7 20 Este 32 Nordeste 0 -- -- 58
2019-12-08 00:00:00 9.5 13 Este 29 Este 0 -- -- 66
2019-12-07 23:00:00 5.6 3 Este 24 Nordeste 0 -- -- 84
2019-12-07 22:00:00 8.4 12 Nordeste 40 Nordeste 0 -- -- 72
2019-12-07 21:00:00 9.4 27 Nordeste 37 Este 0 -- -- 68
2019-12-07 20:00:00 10 25 Nordeste 36 Este 0 -- -- 64
2019-12-07 19:00:00 6.9 5 Este 13 Este 0 -- -- 85
2019-12-07 18:00:00 8.9 3 Sudeste 9 Sudoeste 0 -- -- 76
2019-12-07 17:00:00 12.5 3 Sudoeste 8 Noroeste 0 -- -- 64
2019-12-07 16:00:00 12.8 4 Sudoeste 6 Sudoeste 0 -- -- 61
2019-12-07 15:00:00 12 5 Sudoeste 17 Sudoeste 0 -- -- 63
2019-12-07 14:00:00 12.1 11 Sudoeste 15 Sudoeste 0 -- -- 61
2019-12-07 13:00:00 11.8 3 Sudoeste 6 Sudoeste 0 -- -- 60
2019-12-07 12:00:00 10.4 3 Sudoeste 5 Este 0 -- -- 66
2019-12-07 11:00:00 7.4 3 Sudeste 8 Este 0 -- -- 71
2019-12-07 10:00:00 5.3 6 Sudeste 22 Nordeste 0 -- -- 76
2019-12-07 09:00:00 4.4 8 Este 11 Sudeste 0 -- -- 79
2019-12-07 08:00:00 5.1 8 Sudeste 12 Sudeste 0 -- -- 75
2019-12-07 07:00:00 6.3 7 Nordeste 29 Nordeste 0 -- -- 72
2019-12-07 06:00:00 6.7 9 Este 30 Nordeste 0 -- -- 71
2019-12-07 05:00:00 7.3 20 Este 34 Este 0 -- -- 69
2019-12-07 04:00:00 6.2 15 Nordeste 34 Nordeste 0 -- -- 74
2019-12-07 03:00:00 6.8 18 Este 28 Este 0 -- -- 77
2019-12-07 02:00:00 5.1 10 Este 17 Nordeste 0 -- -- 87
2019-12-07 01:00:00 4.8 7 Nordeste 9 Nordeste 0 -- -- 89
2019-12-07 00:00:00 7 5 Oeste 29 Este 0 -- -- 78
2019-12-06 23:00:00 7.6 18 Este 29 Este 0 -- -- 77
2019-12-06 22:00:00 5.5 7 Este 12 Sudoeste 0 -- -- 87
2019-12-06 21:00:00 7.1 3 Sur 15 Este 0 -- -- 79
2019-12-06 20:00:00 6.3 6 Nordeste 14 Sudeste 0 -- -- 82
2019-12-06 19:00:00 6.5 9 Sudeste 12 Sudeste 0 -- -- 85
2019-12-06 18:00:00 8.4 5 Sudeste 9 Sudoeste 0 -- -- 78
2019-12-06 17:00:00 11.3 7 Sudoeste 15 Sudoeste 0 -- -- 69
2019-12-06 16:00:00 12.1 12 Sudoeste 17 Sudoeste 0 -- -- 66
2019-12-06 15:00:00 12.7 9 Sudoeste 14 Oeste 0 -- -- 60
2019-12-06 14:00:00 12 9 Sudoeste 13 Sudoeste 0 -- -- 61
2019-12-06 13:00:00 11 8 Oeste 13 Sudoeste 0 -- -- 65
2019-12-06 12:00:00 9.7 6 Oeste 31 Este 0 -- -- 68
2019-12-06 11:00:00 8.9 17 Este 30 Este 0 -- -- 65
2019-12-06 10:00:00 7.1 14 Este 24 Este 0 -- -- 72
2019-12-06 09:00:00 6.4 12 Este 22 Nordeste 0 -- -- 75
2019-12-06 08:00:00 5.1 10 Nordeste 21 Este 0 -- -- 79
2019-12-06 07:00:00 7 17 Este 26 Este 0 -- -- 72
2019-12-06 06:00:00 7.1 19 Este 33 Nordeste 0 -- -- 72
2019-12-06 05:00:00 7 15 Este 30 Este 0 -- -- 74
2019-12-06 04:00:00 7 15 Este 28 Este 0 -- -- 74
2019-12-06 03:00:00 7.4 17 Este 25 Este 0 -- -- 72
2019-12-06 02:00:00 5.2 10 Nordeste 20 Nordeste 0 -- -- 81
2019-12-06 01:00:00 7.9 13 Este 27 Este 0 -- -- 69
2019-12-06 00:00:00 7.3 19 Este 31 Este 0 -- -- 75
2019-12-05 23:00:00 7.3 21 Este 28 Este 0 -- -- 75
2019-12-05 22:00:00 7 18 Este 27 Este 0 -- -- 78
2019-12-05 21:00:00 7.1 17 Este 27 Este 0 -- -- 77
2019-12-05 20:00:00 7 15 Este 24 Este 0 -- -- 79
2019-12-05 19:00:00 7.9 13 Este 22 Nordeste 0 -- -- 76
2019-12-05 18:00:00 8.2 12 Este 24 Este 0 -- -- 75
2019-12-05 17:00:00 9.9 11 Nordeste 25 Nordeste 0 -- -- 69
2019-12-05 16:00:00 10.1 17 Nordeste 28 Nordeste 0 -- -- 67
2019-12-05 15:00:00 9.7 17 Nordeste 32 Nordeste 0 -- -- 68
2019-12-05 14:00:00 9.4 14 Este 24 Nordeste 0 -- -- 70
2019-12-05 13:00:00 7.8 18 Nordeste 33 Este 0 -- -- 75
2019-12-05 12:00:00 7.5 22 Este 36 Este 0 -- -- 74
2019-12-05 11:00:00 5.7 24 Nordeste 39 Nordeste 0 -- -- 81
2019-12-05 10:00:00 5.1 20 Este 40 Este 0 -- -- 82
2019-12-05 09:00:00 4.3 28 Este 42 Este 0 -- -- 84
2019-12-05 08:00:00 4.1 27 Este 40 Este 0 -- -- 85
2019-12-05 07:00:00 4.2 26 Este 44 Este 0 -- -- 84
2019-12-05 06:00:00 4.4 23 Nordeste 36 Nordeste 0 -- -- 87
2019-12-05 05:00:00 4.8 23 Este 40 Este 0 -- -- 88
2019-12-05 04:00:00 5 23 Este 40 Este 0 -- -- 86
2019-12-05 03:00:00 5.1 22 Nordeste 36 Nordeste 0 -- -- 87
2019-12-05 02:00:00 5.1 22 Nordeste 39 Nordeste 0 -- -- 85
2019-12-05 01:00:00 7.7 18 Este 30 Este 0 -- -- 74
2019-12-05 00:00:00 6.8 18 Este 32 Este 0 -- -- 78
2019-12-04 23:00:00 7 21 Este 36 Este 0 -- -- 77
2019-12-04 22:00:00 5.9 21 Este 37 Este 0 -- -- 84
2019-12-04 21:00:00 6.4 15 Este 35 Este 0 -- -- 83
2019-12-04 20:00:00 6.7 18 Nordeste 31 Nordeste 0 -- -- 82
2019-12-04 19:00:00 6.3 17 Este 34 Este 0 -- -- 81
2019-12-04 18:00:00 6.9 14 Este 33 Este 0 -- -- 80
2019-12-04 17:00:00 7.5 18 Nordeste 32 Este 0 -- -- 78
2019-12-04 16:00:00 8.1 17 Este 31 Nordeste 0 -- -- 74
2019-12-04 15:00:00 8 19 Este 31 Nordeste 0 -- -- 75
2019-12-04 14:00:00 7.7 16 Nordeste 27 Nordeste 0 -- -- 76
2019-12-04 13:00:00 8.3 15 Nordeste 27 Este 0 -- -- 72
2019-12-04 12:00:00 7.7 14 Este 28 Nordeste 0 -- -- 72
2019-12-04 11:00:00 6.8 16 Nordeste 28 Nordeste 0 -- -- 75
2019-12-04 10:00:00 5.7 19 Este 31 Este 0 -- -- 75
2019-12-04 09:00:00 5.3 19 Este 28 Este 0 -- -- 78
2019-12-04 08:00:00 5.2 17 Nordeste 29 Nordeste 0 -- -- 79
2019-12-04 07:00:00 5.4 18 Este 31 Este 0 -- -- 79
2019-12-04 06:00:00 3.6 3 Sudeste 14 Norte 0 -- -- 88
2019-12-04 05:00:00 4.5 3 Nordeste 26 Este 0 -- -- 83
2019-12-04 04:00:00 5.4 17 Este 27 Nordeste 0 -- -- 80
2019-12-04 03:00:00 4.8 14 Nordeste 21 Nordeste 0 -- -- 81
2019-12-04 02:00:00 4.4 5 Este 12 Este 0 -- -- 87
2019-12-04 01:00:00 3.8 9 Este 13 Sudeste 0 -- -- 87
2019-12-04 00:00:00 3.6 5 Este 14 Sudeste 0 -- -- 88
2019-12-03 23:00:00 4.5 9 Este 16 Nordeste 0 -- -- 83
2019-12-03 22:00:00 3 8 Este 12 Sudeste 0 -- -- 90
2019-12-03 21:00:00 2.8 5 Este 21 Nordeste 0 -- -- 92
2019-12-03 20:00:00 2.2 21 Nordeste 27 Nordeste 0 -- -- 89
2019-12-03 19:00:00 3.8 8 Este 27 Nordeste 0 -- -- 89
2019-12-03 18:00:00 2.9 23 Nordeste 41 Nordeste 0 -- -- 91
2019-12-03 17:00:00 3.5 28 Nordeste 42 Nordeste 0 -- -- 89
2019-12-03 16:00:00 9.4 3 Noroeste 16 Nordeste 0 -- -- 70
2019-12-03 15:00:00 10.3 8 Sudoeste 13 Oeste 0 -- -- 67
2019-12-03 14:00:00 8.9 3 Oeste -- -- -- -- -- 68
2019-12-03 13:00:00 8.3 2 Oeste 22 Nordeste 0 -- -- 69
2019-12-03 12:00:00 7 15 Nordeste 32 Este 0 -- -- 68
2019-12-03 11:00:00 5.2 18 Nordeste 38 Nordeste 0 -- -- 72
2019-12-03 10:00:00 3.7 17 Nordeste 34 Nordeste 0 -- -- 75
2019-12-03 09:00:00 3.1 15 Este 44 Nordeste 0 -- -- 79
2019-12-03 08:00:00 4.2 26 Este 38 Este 0 -- -- 73
2019-12-03 07:00:00 2.9 19 Este 44 Este 0 -- -- 81
2019-12-03 06:00:00 3 31 Este 45 Este 0 -- -- 84
2019-12-03 05:00:00 2.6 26 Nordeste 45 Nordeste 0 -- -- 87
2019-12-03 04:00:00 4.4 18 Este 38 Nordeste 0 -- -- 78
2019-12-03 03:00:00 4.9 26 Este 40 Este 0 -- -- 75
2019-12-03 02:00:00 4.4 23 Este 36 Este 0 -- -- 81
2019-12-03 01:00:00 4.8 19 Este 40 Este 0 -- -- 80
2019-12-03 00:00:00 5.2 24 Este 40 Este 0 -- -- 78
2019-12-02 23:00:00 5.7 22 Este 37 Este 0 -- -- 77
2019-12-02 22:00:00 5.5 16 Este 31 Este 0 -- -- 82
2019-12-02 21:00:00 5.9 21 Este 40 Nordeste 0 -- -- 79
2019-12-02 20:00:00 5.9 23 Este 35 Este 0 -- -- 80
2019-12-02 19:00:00 6.4 17 Este 28 Nordeste 0 -- -- 79
2019-12-02 18:00:00 6.8 16 Nordeste 34 Nordeste 0 -- -- 73
2019-12-02 17:00:00 7.7 15 Nordeste 34 Nordeste 0 -- -- 69
2019-12-02 16:00:00 7.8 21 Nordeste 40 Nordeste 0 -- -- 66
2019-12-02 15:00:00 7.6 22 Nordeste 48 Nordeste 0 -- -- 69
2019-12-02 14:00:00 7.5 23 Nordeste 38 Nordeste 0 -- -- 71
2019-12-02 13:00:00 7.1 18 Nordeste 35 Este 0 -- -- 73
2019-12-02 12:00:00 6.1 21 Nordeste 40 Nordeste 0 -- -- 74
2019-12-02 11:00:00 5.4 23 Este 45 Este 0 -- -- 77
2019-12-02 10:00:00 4.1 22 Este 42 Este 0 -- -- 84
2019-12-02 09:00:00 3.9 19 Este 40 Nordeste 0 -- -- 85
2019-12-02 08:00:00 4.2 17 Este 37 Nordeste 0 -- -- 86
2019-12-02 07:00:00 4.5 19 Este 35 Nordeste 0 -- -- 87
2019-12-02 06:00:00 4.5 18 Este 32 Este 0 -- -- 89
2019-12-02 05:00:00 4.2 14 Nordeste 33 Nordeste 0.2 -- -- 90
2019-12-02 04:00:00 3.5 9 Nordeste 30 Nordeste 3.4 -- -- 92
2019-12-02 03:00:00 3.4 17 Este 38 Este 4.4 -- -- 90
2019-12-02 02:00:00 3.8 20 Este 34 Nordeste 3.4 -- -- 89
2019-12-02 01:00:00 3.4 18 Este 39 Nordeste 5.6 -- -- 91
2019-12-02 00:00:00 4.7 19 Este 41 Nordeste 3.6 -- -- 91
2019-12-01 23:00:00 5.3 20 Este 37 Este 0.4 -- -- 90
2019-12-01 22:00:00 5.7 20 Este 38 Nordeste 0 -- -- 89
2019-12-01 21:00:00 6 19 Este 38 Nordeste 0 -- -- 88
2019-12-01 20:00:00 6.1 19 Este 35 Este 0.4 -- -- 88
2019-12-01 19:00:00 6 14 Este 24 Nordeste 0.6 -- -- 89
2019-12-01 18:00:00 6.5 12 Nordeste 26 Nordeste 0.4 -- -- 85
2019-12-01 17:00:00 7.1 10 Este 27 Nordeste 0 -- -- 85
2019-12-01 16:00:00 8 18 Nordeste 29 Nordeste 0 -- -- 79
2019-12-01 15:00:00 7.2 14 Nordeste 27 Norte 0.2 -- -- 86
2019-12-01 14:00:00 6.4 12 Nordeste 19 Nordeste 1.2 -- -- 92
2019-12-01 13:00:00 6 10 Nordeste 18 Nordeste 0.8 -- -- 100
2019-12-01 12:00:00 6.2 5 Oeste 12 Oeste 1.6 -- -- 100
2019-12-01 11:00:00 5.9 9 Sudoeste 17 Sudoeste 3.4 -- -- 100
2019-12-01 10:00:00 5.7 11 Sudoeste 22 Sudoeste 3 -- -- 100
2019-12-01 09:00:00 5.3 10 Sudoeste 18 Sudoeste 3.6 -- -- 100
2019-12-01 08:00:00 5.1 12 Sudoeste 20 Sudoeste 1.8 -- -- 100
2019-12-01 07:00:00 5 11 Sudoeste 24 Sudoeste 1.2 -- -- 100
2019-12-01 06:00:00 4.9 13 Sudoeste 21 Sur 2.2 -- -- 99
2019-12-01 05:00:00 4.4 7 Sudoeste 22 Sudoeste 0.2 -- -- 98
2019-12-01 04:00:00 3.7 9 Sudoeste 17 Sudoeste 0 -- -- 95
2019-12-01 03:00:00 3.4 0 Calma 8 Sur 0 -- -- 91
2019-12-01 02:00:00 3.2 5 Sudeste 14 Nordeste 0 -- -- 89
2019-12-01 01:00:00 3.3 6 Este 13 Nordeste 0 -- -- 87
2019-12-01 00:00:00 4.7 14 Nordeste 27 Nordeste 0 -- -- 88
2019-11-30 23:00:00 3.8 8 Este 23 Nordeste 0 -- -- 85
2019-11-30 22:00:00 6 14 Nordeste 26 Nordeste 0 -- -- 96
2019-11-30 21:00:00 6.5 6 Norte 19 Norte 0 -- -- 100
2019-11-30 20:00:00 7.6 6 Sur 39 Sudoeste 1.8 -- -- 100
2019-11-30 19:00:00 9.1 19 Oeste 34 Sudoeste 2.4 -- -- 100
2019-11-30 18:00:00 9.8 19 Sudoeste 35 Sudoeste 1.4 -- -- 100
2019-11-30 17:00:00 9.9 23 Sudoeste 48 Sudoeste 1.6 -- -- 100
2019-11-30 16:00:00 9.9 28 Sudoeste 41 Sudoeste 4.4 -- -- 100
2019-11-30 15:00:00 9.6 25 Sudoeste 41 Sudoeste 2.4 -- -- 100
2019-11-30 14:00:00 9.3 27 Sudoeste 39 Sudoeste 2.2 -- -- 100
2019-11-30 13:00:00 9.1 24 Sudoeste 39 Sudoeste 1.6 -- -- 100
2019-11-30 12:00:00 9.1 28 Sudoeste 41 Sudoeste 0.6 -- -- 100
2019-11-30 11:00:00 9 26 Sudoeste 36 Sudoeste 0.6 -- -- 100
2019-11-30 10:00:00 9 26 Sudoeste 38 Sudoeste 0.6 -- -- 100
2019-11-30 09:00:00 9 24 Sudoeste 40 Sudoeste 0.8 -- -- 100
2019-11-30 08:00:00 9.2 21 Sudoeste 35 Sudoeste 0.8 -- -- 100
2019-11-30 07:00:00 9.4 19 Sudoeste 35 Sudoeste 0.4 -- -- 100
2019-11-30 06:00:00 9.8 17 Sudoeste 33 Sudoeste 0.2 -- -- 100
2019-11-30 05:00:00 10 14 Sudoeste 25 Sudoeste 0.8 -- -- 100
2019-11-30 04:00:00 10.1 12 Sudoeste 27 Sudoeste 0.2 -- -- 100
2019-11-30 03:00:00 10.3 14 Sudoeste 34 Sudoeste 0.8 -- -- 100
2019-11-30 02:00:00 10.5 16 Sudoeste 28 Sudoeste 1.4 -- -- 100
2019-11-30 01:00:00 10.6 9 Sudoeste 19 Sudoeste 1.6 -- -- 100
2019-11-30 00:00:00 10.6 9 Sudoeste 22 Sudoeste 0 -- -- 100
2019-11-29 23:00:00 10.6 12 Sudoeste 23 Sudoeste 1.2 -- -- 100
2019-11-29 22:00:00 10.7 10 Sudoeste 24 Sudoeste 1.4 -- -- 100
2019-11-29 21:00:00 10.7 12 Sudoeste 23 Sudoeste 1.4 -- -- 100
2019-11-29 20:00:00 10.8 14 Sudoeste 21 Sudoeste 1 -- -- 100
2019-11-29 19:00:00 10.8 8 Sudoeste 17 Sudoeste 1.2 -- -- 100
2019-11-29 18:00:00 10.7 9 Sudoeste 15 Sudoeste 1.2 -- -- 100
2019-11-29 17:00:00 10.6 4 Oeste 6 Sur 1 -- -- 100
2019-11-29 16:00:00 10.4 5 Sudoeste 18 Sudoeste 0 -- -- 100
2019-11-29 15:00:00 10.7 11 Sudoeste 22 Sudoeste 0 -- -- 100
2019-11-29 14:00:00 10.6 9 Sudoeste 21 Sudoeste 0.2 -- -- 100
2019-11-29 13:00:00 10.5 14 Sudoeste 22 Oeste 0.8 -- -- 100
2019-11-29 12:00:00 10.3 12 Sudoeste 20 Sudoeste 1.2 -- -- 100
2019-11-29 11:00:00 10.1 10 Sudoeste 21 Oeste 2.4 -- -- 100
2019-11-29 10:00:00 10.1 10 Sudoeste 18 Sudoeste 3.6 -- -- 100
2019-11-29 09:00:00 10 11 Sudoeste 21 Sudoeste 3 -- -- 100
2019-11-29 08:00:00 9.9 12 Sudoeste 17 Sudoeste 3.2 -- -- 100
2019-11-29 07:00:00 9.9 6 Sudoeste 12 Sudoeste 3.2 -- -- 100
2019-11-29 06:00:00 9.9 8 Sudoeste 18 Sudoeste 2.4 -- -- 100
2019-11-29 05:00:00 9.8 12 Sudoeste 20 Sudoeste 3 -- -- 100
2019-11-29 04:00:00 9.8 12 Sudoeste 21 Sudoeste 2.6 -- -- 100
2019-11-29 03:00:00 9.7 11 Sudoeste 18 Sudoeste 2.4 -- -- 100
2019-11-29 02:00:00 9.6 11 Sudoeste 27 Sudoeste 2.8 -- -- 100
2019-11-29 01:00:00 9.6 15 Sudoeste 25 Sudoeste 2 -- -- 100
2019-11-29 00:00:00 9.6 19 Sudoeste 28 Sudoeste 2.8 -- -- 100
2019-11-28 23:00:00 9.5 14 Sudoeste 32 Sudoeste 1.6 -- -- 100
2019-11-28 22:00:00 9.4 15 Sudoeste 25 Sudoeste 0 -- -- 100
2019-11-28 21:00:00 9.2 16 Sudoeste 27 Sudoeste 0 -- -- 100
2019-11-28 20:00:00 9.1 19 Sudoeste 28 Sudoeste 0 -- -- 100
2019-11-28 19:00:00 9 18 Sudoeste 37 Sudoeste 0 -- -- 100
2019-11-28 18:00:00 8.7 22 Sudoeste 32 Oeste 0.8 -- -- 100
2019-11-28 17:00:00 8.6 18 Sudoeste 41 Sudoeste 0.2 -- -- 100
2019-11-28 16:00:00 8.5 25 Sudoeste 39 Sudoeste 0.8 -- -- 100
2019-11-28 15:00:00 8.5 25 Sudoeste 35 Sudoeste 0.2 -- -- 100
2019-11-28 14:00:00 8.2 20 Sudoeste 32 Sudoeste 0.2 -- -- 100
2019-11-28 13:00:00 8 14 Sudoeste 26 Sudoeste 0 -- -- 100
2019-11-28 12:00:00 7.7 16 Sudoeste 25 Sudoeste 0.4 -- -- 100
2019-11-28 11:00:00 7.6 19 Sudoeste 27 Sudoeste 0.6 -- -- 100
2019-11-28 10:00:00 7.5 15 Sudoeste 21 Sudoeste 0.2 -- -- 100
2019-11-28 09:00:00 7.3 12 Sudoeste 21 Sudoeste 0.2 -- -- 100
2019-11-28 08:00:00 7.2 11 Sudoeste 23 Sudoeste 0.2 -- -- 100
2019-11-28 07:00:00 7.2 15 Sudoeste 22 Sudoeste 0 -- -- 100
2019-11-28 06:00:00 7.3 8 Sudoeste 24 Sudoeste 0.8 -- -- 100
2019-11-28 05:00:00 7.1 8 Sudoeste 17 Sudoeste 0.6 -- -- 100
2019-11-28 04:00:00 7 10 Sudoeste 15 Sudoeste 0 -- -- 100
2019-11-28 03:00:00 7.1 9 Sudoeste 23 Sudoeste 0 -- -- 100
2019-11-28 02:00:00 7.1 20 Sudoeste 29 Sudoeste 0 -- -- 100
2019-11-28 01:00:00 7.2 14 Sudoeste 25 Sudoeste 0 -- -- 100
2019-11-28 00:00:00 7.3 17 Sudoeste 28 Sudoeste 0 -- -- 100
2019-11-27 23:00:00 7.5 12 Sudoeste 24 Oeste 0 -- -- 100
2019-11-27 22:00:00 7.6 10 Sudoeste 29 Oeste 0 -- -- 99
2019-11-27 21:00:00 7.7 17 Sudoeste 30 Oeste 0 -- -- 100
2019-11-27 20:00:00 7.6 15 Sudoeste 26 Sudoeste 0 -- -- 100
2019-11-27 19:00:00 7.6 17 Sudoeste 31 Oeste 0 -- -- 100
2019-11-27 18:00:00 7.3 17 Sudoeste 30 Sudoeste 0 -- -- 100
2019-11-27 17:00:00 7.8 19 Sudoeste 31 Sudoeste 0 -- -- 100
2019-11-27 16:00:00 8.2 17 Sudoeste 31 Sudoeste 0.2 -- -- 100
2019-11-27 15:00:00 7.8 22 Sudoeste 32 Sudoeste 0 -- -- 99
2019-11-27 14:00:00 7.3 17 Sudoeste 26 Sudoeste 0 -- -- 99
2019-11-27 06:00:00 7.2 3 Oeste 15 Sur 0 -- -- 99
2019-11-27 05:00:00 7.4 14 Sudoeste 30 Sudoeste 0 -- -- 99
2019-11-27 04:00:00 8 16 Sudoeste 36 Oeste 0 -- -- 99
2019-11-27 03:00:00 8.6 17 Sudoeste 31 Oeste 0 -- -- 100
2019-11-27 02:00:00 9 19 Sudoeste 31 Sudoeste 0 -- -- 99
2019-11-27 01:00:00 9.1 14 Oeste 44 Sudoeste 1 -- -- 99
2019-11-27 00:00:00 9.5 28 Sudoeste 46 Sudoeste 1.6 -- -- 99
2019-11-26 23:00:00 9.6 23 Sudoeste 48 Sudoeste 1.4 -- -- 99
2019-11-26 22:00:00 9.7 26 Sudoeste 50 Sudoeste 0 -- -- 98
2019-11-26 21:00:00 9.9 29 Sudoeste 58 Sudoeste 0 -- -- 100
2019-11-26 20:00:00 10.2 32 Sudoeste 51 Sudoeste 0 -- -- 100
2019-11-26 19:00:00 10.9 30 Sudoeste 52 Sudoeste 3.6 -- -- 100
2019-11-26 18:00:00 10.8 27 Sudoeste 43 Sudoeste 4.8 -- -- 100
2019-11-26 17:00:00 10.5 28 Sudoeste 43 Sudoeste 3.2 -- -- 100
2019-11-26 16:00:00 10.5 28 Sudoeste 42 Sudoeste 3.8 -- -- 100
2019-11-26 15:00:00 10.3 22 Sudoeste 35 Sudoeste 4.8 -- -- 100
2019-11-26 14:00:00 10.1 21 Sudoeste 32 Sudoeste 2.2 -- -- 100
2019-11-26 13:00:00 9.8 18 Sudoeste 30 Sudoeste 0.8 -- -- 100
2019-11-26 12:00:00 9.7 19 Sudoeste 30 Sudoeste 1.4 -- -- 100
2019-11-26 11:00:00 9.5 14 Sudoeste 21 Sudoeste 0.4 -- -- 100
2019-11-26 10:00:00 9.1 10 Sudoeste 17 Sudoeste 0.4 -- -- 100
2019-11-26 09:00:00 8.8 13 Sudoeste 24 Sudoeste 0.6 -- -- 99
2019-11-26 08:00:00 8.6 13 Sudoeste 22 Sudoeste 0.6 -- -- 99
2019-11-26 07:00:00 8.5 13 Sudoeste 20 Sudoeste 0.4 -- -- 99
2019-11-26 06:00:00 8.6 9 Sudoeste 14 Sudoeste 0 -- -- 98
2019-11-26 05:00:00 8.8 3 Sudoeste 10 Sudoeste 0.2 -- -- 97
2019-11-26 04:00:00 9.1 0 Calma 11 Sur 0 -- -- 97
2019-11-26 03:00:00 9.1 5 Sudoeste 17 Sudoeste 0 -- -- 97
2019-11-26 02:00:00 9.4 9 Sur 14 Sur 0 -- -- 96
2019-11-26 01:00:00 9.5 5 Sudeste 12 Sudoeste 0 -- -- 95
2019-11-26 00:00:00 9.7 5 Sur 15 Sur 0 -- -- 95
2019-11-25 23:00:00 9.9 4 Sudoeste 14 Sur 0 -- -- 97
2019-11-25 22:00:00 10 5 Sudoeste 9 Sudoeste 0 -- -- 97
2019-11-25 21:00:00 9.9 4 Sudeste 9 Sudeste 0 -- -- 97
2019-11-25 20:00:00 10.2 3 Noroeste 9 Sudoeste 0 -- -- 97
2019-11-25 19:00:00 10.4 7 Sudoeste 10 Sudoeste 0 -- -- 96
2019-11-25 18:00:00 10.6 2 Sur 15 Sudoeste 0 -- -- 93
2019-11-25 17:00:00 11.2 10 Sudoeste 21 Sudoeste 0 -- -- 90
2019-11-25 16:00:00 12.3 5 Oeste 25 Sudoeste 0 -- -- 79
2019-11-25 15:00:00 13.8 13 Sudoeste 22 Sudoeste 0 -- -- 76
2019-11-25 14:00:00 13 9 Sudoeste 21 Sudoeste 0 -- -- 73
2019-11-25 13:00:00 12.1 7 Sudoeste 18 Sudoeste 0 -- -- 98
2019-11-25 12:00:00 11 3 Sudoeste 15 Sudoeste 0 -- -- 99
2019-11-25 11:00:00 9.9 3 Sudoeste 21 Sudoeste 0 -- -- 100
2019-11-25 10:00:00 9.4 14 Sudoeste 22 Sudoeste 0 -- -- 100
2019-11-25 09:00:00 8.8 4 Sudoeste 15 Sudoeste 0 -- -- 100
2019-11-25 08:00:00 8.8 5 Sudoeste 14 Sudoeste 0 -- -- 100
2019-11-25 07:00:00 8.7 5 Sudoeste 15 Sudoeste 0 -- -- 100
2019-11-25 06:00:00 8.9 14 Sudoeste 26 Sudoeste 0.4 -- -- 100
2019-11-25 05:00:00 8.5 14 Sur 31 Sudoeste 0.4 -- -- 100
2019-11-25 04:00:00 8.1 19 Sudoeste 28 Sudoeste 1.2 -- -- 100
2019-11-25 03:00:00 7.6 16 Sudoeste 34 Sudoeste 2 -- -- 99
2019-11-25 02:00:00 7.5 25 Sudoeste 33 Oeste 1.4 -- -- 99
2019-11-25 01:00:00 7.1 19 Sudoeste 27 Sudoeste 1.6 -- -- 99
2019-11-25 00:00:00 7 20 Sudoeste 42 Sudoeste 0.8 -- -- 99
2019-11-24 23:00:00 6.9 19 Sudoeste 28 Sudoeste 1 -- -- 99
2019-11-24 22:00:00 6.8 13 Sudoeste 21 Sudoeste 0.4 -- -- 98
2019-11-24 21:00:00 6.5 14 Sudoeste 22 Sudoeste 0.2 -- -- 98
2019-11-24 20:00:00 6.1 11 Sudoeste 22 Sudoeste 0.2 -- -- 97
2019-11-24 19:00:00 6.1 14 Sudoeste 19 Sudoeste 0 -- -- 94
2019-11-24 18:00:00 6.4 6 Sudoeste 15 Sudoeste 0 -- -- 89
2019-11-24 17:00:00 6.7 8 Sudoeste 19 Oeste 0 -- -- 83
2019-11-24 16:00:00 7.2 14 Sudoeste 26 Sudoeste 0 -- -- 79
2019-11-24 15:00:00 8.4 18 Sudoeste 26 Sudoeste 0 -- -- 71
2019-11-24 14:00:00 11 6 Sudoeste 17 Sudoeste 0 -- -- 57
2019-11-24 13:00:00 8.9 6 Norte 22 Nordeste 0 -- -- 54
2019-11-24 12:00:00 8.2 15 Nordeste 34 Nordeste 0 -- -- 58
2019-11-24 11:00:00 6.2 18 Este 33 Este 0 -- -- 64
2019-11-24 10:00:00 4.1 22 Este 39 Este 0 -- -- 76
2019-11-24 09:00:00 3.5 19 Este 37 Este 0 -- -- 78
2019-11-24 08:00:00 3.5 19 Nordeste 35 Nordeste 0 -- -- 77
2019-11-24 07:00:00 3.3 20 Nordeste 36 Nordeste 0 -- -- 76
2019-11-24 06:00:00 3.9 17 Nordeste 27 Nordeste 0 -- -- 72
2019-11-24 05:00:00 4.8 13 Este 28 Este 0 -- -- 62
2019-11-24 04:00:00 4.1 11 Nordeste 24 Norte 0 -- -- 72
2019-11-24 03:00:00 2.8 10 Nordeste 14 Norte 0 -- -- 79
2019-11-24 02:00:00 3.1 8 Este 14 Norte 0 -- -- 80
2019-11-24 01:00:00 4.5 8 Este 19 Este 0 -- -- 73
2019-11-24 00:00:00 4.7 8 Nordeste 14 Nordeste 0 -- -- 74
2019-11-23 23:00:00 4.4 5 Este 13 Nordeste 0 -- -- 81
2019-11-23 22:00:00 4.1 5 Nordeste 11 Nordeste 0 -- -- 82
2019-11-23 21:00:00 4.5 7 Nordeste 14 Nordeste 0 -- -- 76
2019-11-23 20:00:00 5.4 8 Este 20 Sudeste 0 -- -- 69
2019-11-23 19:00:00 6.9 11 Sudeste 26 Este 0 -- -- 61
2019-11-23 18:00:00 7.9 10 Sudeste 25 Sudoeste 0 -- -- 59
2019-11-23 17:00:00 9.1 9 Oeste 43 Norte 0 -- -- 55
2019-11-23 16:00:00 9.5 10 Noroeste 35 Noroeste 0 -- -- 53
2019-11-23 15:00:00 9.4 17 Oeste 46 Noroeste 0 -- -- 53
2019-11-23 14:00:00 8.6 23 Noroeste 56 Oeste 0 -- -- 57
2019-11-23 13:00:00 8.5 20 Noroeste 64 Norte 0 -- -- 55
2019-11-23 12:00:00 7.4 19 Norte 64 Norte 0 -- -- 58
2019-11-23 11:00:00 6.4 21 Norte 71 Norte 0 -- -- 57
2019-11-23 10:00:00 5.4 20 Noroeste 63 Norte 0 -- -- 63
2019-11-23 09:00:00 5 15 Norte 58 Norte 0 -- -- 68
2019-11-23 08:00:00 4.9 10 Este 40 Este 0 -- -- 68
2019-11-23 07:00:00 5.4 9 Sudeste 44 Sur 0 -- -- 58
2019-11-23 06:00:00 4.9 17 Sudeste 30 Este 0 -- -- 65
2019-11-23 05:00:00 5.6 17 Sudeste 45 Sudeste 0 -- -- 65
2019-11-23 04:00:00 5.4 14 Sur 69 Oeste 0 -- -- 72
2019-11-23 03:00:00 5.3 24 Oeste 68 Noroeste 0 -- -- 75
2019-11-23 02:00:00 4.9 12 Sudoeste 58 Oeste 0 -- -- 79
2019-11-23 01:00:00 4.8 16 Oeste 66 Sudoeste 4.2 -- -- 86
2019-11-23 00:00:00 6.3 18 Sudoeste 62 Sudoeste 0.6 -- -- 92
2019-11-22 23:00:00 6.4 22 Sudoeste 40 Sudoeste 2.6 -- -- 97
2019-11-22 22:00:00 6.5 19 Sudoeste 30 Oeste 0 -- -- 97
2019-11-22 21:00:00 6.5 19 Sudoeste 37 Oeste 0 -- -- 95
2019-11-22 20:00:00 6.9 22 Oeste 36 Sudoeste 0 -- -- 95
2019-11-22 19:00:00 7.4 22 Sudoeste 45 Sudoeste 0.4 -- -- 95
2019-11-22 18:00:00 8.6 24 Sudoeste 54 Sudoeste 0 -- -- 87
2019-11-22 17:00:00 9.2 26 Sudoeste 49 Sudoeste 0 -- -- 97
2019-11-22 16:00:00 9.5 26 Sudoeste 46 Sudoeste 1 -- -- 100
2019-11-22 15:00:00 9.1 26 Sudoeste 36 Sudoeste 0.4 -- -- 100
2019-11-22 14:00:00 8.5 23 Sudoeste 40 Sudoeste 2.4 -- -- 100
2019-11-22 13:00:00 8 21 Sudoeste 31 Sudoeste 6.6 -- -- 100
2019-11-22 12:00:00 7.7 19 Oeste 31 Sudoeste 4.2 -- -- 100
2019-11-22 11:00:00 7.5 19 Sudoeste 35 Sudoeste 2.8 -- -- 100
2019-11-22 10:00:00 7.2 20 Sudoeste 35 Sudoeste 2.2 -- -- 100
2019-11-22 09:00:00 6.7 21 Sudoeste 36 Sudoeste 2.2 -- -- 100
2019-11-22 08:00:00 6.2 19 Sudoeste 42 Oeste 2 -- -- 100
2019-11-22 07:00:00 6 26 Sudoeste 37 Sudoeste 2.6 -- -- 100
2019-11-22 06:00:00 6 19 Sudoeste 27 Sudoeste 2.2 -- -- 100
2019-11-22 05:00:00 6.1 21 Sudoeste 32 Sudoeste 1.6 -- -- 100
2019-11-22 04:00:00 6.2 22 Sudoeste 31 Sudoeste 1 -- -- 100
2019-11-22 03:00:00 6.1 15 Sudoeste 21 Sudoeste 2 -- -- 100
2019-11-22 02:00:00 6.1 15 Sudoeste 22 Sudoeste 0.6 -- -- 99
2019-11-22 01:00:00 5.9 12 Sudoeste 18 Sudoeste 0.6 -- -- 99
2019-11-22 00:00:00 5.7 9 Sudoeste 16 Oeste 0.8 -- -- 99
2019-11-21 23:00:00 5.7 8 Sudoeste 17 Sudoeste 0.6 -- -- 99
2019-11-21 22:00:00 5.9 7 Sudoeste 12 Sudoeste 0 -- -- 98
2019-11-21 21:00:00 5.9 9 Sudoeste 12 Sudoeste 0 -- -- 98
2019-11-21 20:00:00 6 3 Sudoeste 12 Sur 0 -- -- 98
2019-11-21 19:00:00 6.2 4 Sur 12 Sudoeste 0 -- -- 97
2019-11-21 18:00:00 6.8 6 Sudoeste 16 Sudoeste 0 -- -- 97
2019-11-21 17:00:00 7.7 8 Sudoeste 16 Sudoeste 0 -- -- 99
2019-11-21 16:00:00 6.7 9 Sudoeste 24 Oeste 0.2 -- -- 100
2019-11-21 15:00:00 6.7 12 Oeste 28 Sudoeste 0 -- -- 100
2019-11-21 14:00:00 6.2 17 Sudoeste 27 Sudoeste 0.2 -- -- 100
2019-11-21 13:00:00 6.2 16 Sudoeste 24 Oeste 0.2 -- -- 99
2019-11-21 12:00:00 5.6 10 Sudoeste 18 Sudoeste 0.4 -- -- 100
2019-11-21 11:00:00 5.3 11 Sudoeste 18 Sudoeste 0.4 -- -- 100
2019-11-21 10:00:00 4.9 7 Sudoeste 13 Sudoeste 2 -- -- 100
2019-11-21 09:00:00 4.5 8 Sudoeste 12 Sudoeste 2 -- -- 99
2019-11-21 08:00:00 -- -- -- -- -- -- -- -- --
2019-11-21 07:00:00 -- -- -- -- -- -- -- -- --
2019-11-21 06:00:00 -- -- -- -- -- -- -- -- --
2019-11-21 05:00:00 -- -- -- -- -- -- -- -- --
2019-11-21 04:00:00 -- -- -- -- -- -- -- -- --
2019-11-21 03:00:00 -- -- -- -- -- -- -- -- --
2019-11-21 02:00:00 -- -- -- -- -- -- -- -- --
2019-11-21 01:00:00 -- -- -- -- -- -- -- -- --
2019-11-21 00:00:00 -- -- -- -- -- -- -- -- --
2019-11-20 23:00:00 -- -- -- -- -- -- -- -- --
2019-11-20 22:00:00 -- -- -- -- -- -- -- -- --
2019-11-20 21:00:00 -- -- -- -- -- -- -- -- --
2019-11-20 20:00:00 -- -- -- -- -- -- -- -- --
2019-11-20 19:00:00 3.4 4 Sudoeste 6 Sur 0 -- -- 97
2019-11-20 18:00:00 3.5 4 Oeste 11 Sudoeste 0.4 -- -- 97
2019-11-20 17:00:00 3.8 5 Sudoeste 7 Sudoeste 0.8 -- -- 97
2019-11-20 16:00:00 3.8 0 Calma 9 Sudoeste 0.2 -- -- 98
2019-11-20 15:00:00 3 3 Sudoeste 11 Oeste 0.4 -- -- 98
2019-11-20 14:00:00 2.8 11 Sudoeste 20 Sudoeste 0.4 -- -- 97
2019-11-20 13:00:00 2.9 14 Sudoeste 22 Sudoeste 1.2 -- -- 97
2019-11-20 12:00:00 3.2 9 Sur 14 Sur 1 -- -- 96
2019-11-20 11:00:00 3 10 Sudoeste 16 Sur 1 -- -- 95
2019-11-20 10:00:00 3.1 9 Sudoeste 16 Sudoeste 0.4 -- -- 94
2019-11-20 09:00:00 2.8 7 Sudoeste 14 Sudoeste 0.4 -- -- 95
2019-11-20 08:00:00 3 10 Sudoeste 14 Sur 0 -- -- 91
2019-11-20 07:00:00 3.2 4 Sur 13 Sudoeste 0.6 -- -- 86
2019-11-20 06:00:00 3.8 6 Sur 11 Sur 0 -- -- 77
2019-11-20 05:00:00 3.8 8 Sudeste 13 Sudeste 0.2 -- -- 79
2019-11-20 04:00:00 4.2 4 Sudoeste 6 Oeste 0 -- -- 86
2019-11-20 03:00:00 4.3 0 Calma 4 Norte 0 -- -- 85
2019-11-20 02:00:00 4.5 3 Sur 5 Sur 0 -- -- 81
2019-11-20 01:00:00 4.5 0 Calma 3 Sudeste 0 -- -- 85
2019-11-20 00:00:00 4.5 0 Calma 5 Oeste 0 -- -- 86
2019-11-19 23:00:00 4.4 0 Calma 3 Oeste 0 -- -- 88
2019-11-19 22:00:00 4.3 2 Este 3 Este 0 -- -- 89
2019-11-19 21:00:00 4.2 0 Calma 3 Sudeste 0 -- -- 90
2019-11-19 20:00:00 4.4 2 Sur 3 Sur 0 -- -- 88
2019-11-19 19:00:00 4.6 0 Calma 4 Sur 0 -- -- 86
2019-11-19 18:00:00 5.3 4 Sudoeste 9 Sudoeste 0 -- -- 81
2019-11-19 17:00:00 6.1 8 Sudoeste 13 Sudoeste 0 -- -- 78
2019-11-19 16:00:00 7 9 Sudoeste 15 Sudoeste 0 -- -- 72
2019-11-19 15:00:00 7.7 8 Oeste 14 Sudoeste 0 -- -- 69
2019-11-19 14:00:00 7.3 8 Sudoeste 13 Sudoeste 0 -- -- 67
2019-11-19 13:00:00 6.7 4 Oeste 23 Sudoeste 0 -- -- 68
2019-11-19 12:00:00 8.1 7 Sudoeste 10 Sudoeste 0 -- -- 63
2019-11-19 11:00:00 6.2 0 Calma 6 Sudoeste 0 -- -- 68
2019-11-19 10:00:00 4.2 4 Sudeste 12 Nordeste 0 -- -- 77
2019-11-19 09:00:00 3.3 6 Este 13 Nordeste 0 -- -- 77
2019-11-19 08:00:00 2.8 8 Este 26 Nordeste 0 -- -- 75
2019-11-19 07:00:00 2.5 6 Este 13 Nordeste 0 -- -- 76
2019-11-19 06:00:00 3 13 Nordeste 18 Nordeste 0 -- -- 72
2019-11-19 05:00:00 2.4 8 Este 13 Nordeste 0 -- -- 72
2019-11-19 04:00:00 2.5 6 Este 22 Nordeste 0 -- -- 71
2019-11-19 03:00:00 2.9 12 Nordeste 27 Nordeste 0 -- -- 67
2019-11-19 02:00:00 3.3 14 Nordeste 28 Nordeste 0 -- -- 67
2019-11-19 01:00:00 5.1 13 Este 27 Nordeste 0 -- -- 60
2019-11-19 00:00:00 4.6 13 Este 30 Este 0 -- -- 62
2019-11-18 23:00:00 4.8 15 Este 26 Este 0 -- -- 63
2019-11-18 22:00:00 5 14 Este 23 Este 0 -- -- 62
2019-11-18 21:00:00 5 18 Este 27 Este 0 -- -- 65
2019-11-18 20:00:00 4.2 17 Este 26 Este 0 -- -- 73
2019-11-18 19:00:00 4.4 19 Nordeste 28 Nordeste 0 -- -- 74
2019-11-18 18:00:00 6.2 18 Nordeste 33 Nordeste 0 -- -- 66
2019-11-18 17:00:00 8.1 15 Nordeste 27 Nordeste 0 -- -- 56
2019-11-18 16:00:00 8.6 14 Nordeste 30 Norte 0 -- -- 56
2019-11-18 15:00:00 8.7 13 Este 32 Nordeste 0 -- -- 54
2019-11-18 14:00:00 8.2 15 Nordeste 33 Nordeste 0 -- -- 57
2019-11-18 13:00:00 7.4 21 Nordeste 37 Norte 0 -- -- 63
2019-11-18 12:00:00 6.7 22 Nordeste 37 Nordeste 0 -- -- 66
2019-11-18 11:00:00 5.8 17 Nordeste 40 Nordeste 0 -- -- 69
2019-11-18 10:00:00 3.8 22 Nordeste 39 Nordeste 0 -- -- 78
2019-11-18 09:00:00 3.1 21 Nordeste 39 Nordeste 0 -- -- 84
2019-11-18 08:00:00 3.1 23 Nordeste 39 Nordeste 0 -- -- 84
2019-11-18 07:00:00 3.4 20 Este 38 Este 0 -- -- 83
2019-11-18 06:00:00 3.7 24 Este 41 Este 0 -- -- 82
2019-11-18 05:00:00 3.8 24 Este 41 Nordeste 0 -- -- 82
2019-11-18 04:00:00 3.7 17 Este 35 Este 0 -- -- 83
2019-11-18 03:00:00 3.9 22 Nordeste 41 Nordeste 0 -- -- 81
2019-11-18 02:00:00 4.9 22 Este 40 Este 0 -- -- 71
2019-11-18 01:00:00 5.2 20 Este 44 Este 0 -- -- 68
2019-11-18 00:00:00 5.1 14 Nordeste 34 Este 0 -- -- 67
2019-11-17 23:00:00 5 10 Este 42 Nordeste 0 -- -- 71
2019-11-17 22:00:00 6.1 30 Este 51 Este 0 -- -- 71
2019-11-17 21:00:00 7.4 12 Noroeste 41 Noroeste 0.2 -- -- 66
2019-11-17 20:00:00 6.5 10 Norte 22 Norte 1 -- -- 98
2019-11-17 19:00:00 6 4 Sudeste 7 Este 2.6 -- -- 99
2019-11-17 18:00:00 4.6 3 Noroeste 8 Este 3.8 -- -- 98
2019-11-17 17:00:00 4.4 3 Sudoeste 7 Noroeste 2.4 -- -- 98
2019-11-17 16:00:00 4.4 5 Oeste 13 Sudoeste 2 -- -- 97
2019-11-17 15:00:00 4.8 0 Calma 9 Sudoeste 0.2 -- -- 97
2019-11-17 14:00:00 4.7 6 Oeste 18 Oeste 0 -- -- 96
2019-11-17 13:00:00 4.6 0 Calma 14 Oeste 0.8 -- -- 97
2019-11-17 12:00:00 4.5 4 Sur 7 Oeste 0.4 -- -- 96
2019-11-17 11:00:00 3.7 2 Nordeste 9 Sudoeste 0.2 -- -- 97
2019-11-17 10:00:00 2.7 0 Calma 9 Sudoeste 0.2 -- -- 96
2019-11-17 09:00:00 2.8 4 Sudeste 6 Sudeste 0.2 -- -- 95
2019-11-17 08:00:00 3 0 Calma 6 Sudeste 0.6 -- -- 93
2019-11-17 07:00:00 3.3 4 Sur 17 Nordeste 0.2 -- -- 90
2019-11-17 06:00:00 3.1 7 Nordeste 19 Nordeste 0 -- -- 83
2019-11-17 05:00:00 3.7 4 Este 41 Nordeste 0 -- -- 77
2019-11-17 04:00:00 3.8 28 Nordeste 43 Nordeste 0 -- -- 66
2019-11-17 03:00:00 3.3 26 Este 39 Nordeste 0 -- -- 70
2019-11-17 02:00:00 2.9 17 Este 30 Este 0 -- -- 70
2019-11-17 01:00:00 2.6 20 Este 31 Este 0 -- -- 70
2019-11-17 00:00:00 2.9 17 Este 33 Este 0 -- -- 66
2019-11-16 23:00:00 2.9 12 Este 24 Nordeste 0 -- -- 66
2019-11-16 22:00:00 2.9 11 Nordeste 21 Este 0 -- -- 67
2019-11-16 21:00:00 2.6 8 Este 21 Nordeste 0 -- -- 69
2019-11-16 20:00:00 3.2 12 Este 22 Nordeste 0 -- -- 64
2019-11-16 19:00:00 3.1 10 Este 14 Sudeste 0 -- -- 71
2019-11-16 18:00:00 6.1 5 Sudoeste 24 Sudoeste 0 -- -- 60
2019-11-16 17:00:00 8.4 15 Sudoeste 29 Norte 0 -- -- 49
2019-11-16 16:00:00 9.8 10 Oeste 20 Oeste 0 -- -- 43
2019-11-16 15:00:00 9.5 7 Sudoeste 25 Sudoeste 0 -- -- 49
2019-11-16 14:00:00 9.4 12 Sudoeste 20 Oeste 0 -- -- 46
2019-11-16 13:00:00 8 11 Nordeste 23 Nordeste 0 -- -- 45
2019-11-16 12:00:00 6.2 15 Nordeste 24 Nordeste 0 -- -- 57
2019-11-16 11:00:00 4.7 13 Este 23 Nordeste 0 -- -- 62
2019-11-16 10:00:00 2.5 14 Este 31 Este 0 -- -- 71
2019-11-16 09:00:00 1.1 16 Este 30 Nordeste 0 -- -- 79
2019-11-16 08:00:00 0.9 13 Este 33 Nordeste 0 -- -- 82
2019-11-16 07:00:00 1.1 19 Este 38 Nordeste 0 -- -- 82
2019-11-16 06:00:00 2.1 15 Nordeste 40 Este 0 -- -- 72
2019-11-16 05:00:00 1.6 23 Este 42 Este 0 -- -- 76
2019-11-16 04:00:00 1.3 19 Este 38 Este 0 -- -- 80
2019-11-16 03:00:00 1.5 19 Este 34 Nordeste 0 -- -- 81
2019-11-16 02:00:00 1.9 15 Este 32 Nordeste 0 -- -- 81
2019-11-16 01:00:00 2 14 Este 34 Este 0 -- -- 79
2019-11-16 00:00:00 1.9 15 Nordeste 29 Este 0 -- -- 78
2019-11-15 23:00:00 2.7 18 Nordeste 35 Nordeste 0 -- -- 71
2019-11-15 22:00:00 2.8 17 Este 32 Este 0 -- -- 69
2019-11-15 21:00:00 2.9 10 Este 21 Oeste 0 -- -- 69
2019-11-15 20:00:00 2.8 11 Nordeste 23 Este 0 -- -- 70
2019-11-15 19:00:00 3.2 9 Este 32 Este 0 -- -- 63
2019-11-15 18:00:00 4.1 14 Este 27 Este 0 -- -- 60
2019-11-15 17:00:00 5.4 12 Nordeste 27 Este 0 -- -- 55
2019-11-15 16:00:00 6.1 10 Nordeste 25 Nordeste 0 -- -- 54
2019-11-15 15:00:00 6.4 9 Este 28 Este 0 -- -- 60
2019-11-15 14:00:00 4.3 14 Este 28 Este 0 -- -- 69
2019-11-15 13:00:00 3.1 16 Nordeste 35 Este 0 -- -- 72
2019-11-15 12:00:00 2.7 15 Nordeste 28 Nordeste 0 -- -- 76
2019-11-15 11:00:00 2.4 15 Este 32 Este 0 -- -- 74
2019-11-15 10:00:00 1.9 17 Este 36 Este 0 -- -- 78
2019-11-15 09:00:00 2.3 20 Este 34 Este 0 -- -- 72
2019-11-15 08:00:00 2 22 Este 35 Este 0 -- -- 74
2019-11-15 07:00:00 1.9 11 Nordeste 28 Nordeste 0 -- -- 75
2019-11-15 06:00:00 2.3 8 Este 18 Este 0 -- -- 71
2019-11-15 05:00:00 2.4 12 Norte 32 Nordeste 0 -- -- 72
2019-11-15 04:00:00 2.4 9 Oeste 56 Noroeste 0 -- -- 73
2019-11-15 03:00:00 2.8 8 Sudeste 34 Nordeste 0 -- -- 71
2019-11-15 02:00:00 3.3 12 Nordeste 45 Nordeste 0 -- -- 67
2019-11-15 01:00:00 3.7 14 Noroeste 44 Noroeste 0 -- -- 64
2019-11-15 00:00:00 3.7 23 Norte 45 Norte 0 -- -- 68
2019-11-14 23:00:00 3.7 13 Norte 54 Norte 0 -- -- 72
2019-11-14 22:00:00 4 17 Noroeste 54 Norte 0 -- -- 72
2019-11-14 21:00:00 3.7 11 Norte 35 Norte 0.6 -- -- 76
2019-11-14 20:00:00 4.1 19 Noroeste 67 Oeste 0.6 -- -- 78
2019-11-14 19:00:00 5.2 14 Sudeste 77 Norte 0.2 -- -- 70
2019-11-14 18:00:00 3.9 12 Sudoeste 42 Sudoeste 1.6 -- -- 85
2019-11-14 17:00:00 3.3 11 Sudeste 30 Sudoeste 1.2 -- -- 88
2019-11-14 16:00:00 2.6 11 Sur 43 Sudoeste 2.8 -- -- 90
2019-11-14 15:00:00 3.7 16 Sudoeste 33 Sudoeste 0.8 -- -- 78
2019-11-14 14:00:00 3.8 14 Sur 33 Sur 0.4 -- -- 74
2019-11-14 13:00:00 4.7 11 Sudoeste 39 Sudoeste 0 -- -- 70
2019-11-14 12:00:00 4.5 18 Sudoeste 42 Sudoeste 0 -- -- 77
2019-11-14 11:00:00 4.9 8 Este 37 Oeste 0 -- -- 67
2019-11-14 10:00:00 4.4 10 Nordeste 46 Norte 0.2 -- -- 68
2019-11-14 09:00:00 3.5 14 Nordeste 36 Nordeste 0.4 -- -- 76
2019-11-14 08:00:00 4 21 Nordeste 38 Sudoeste 0.8 -- -- 80
2019-11-14 07:00:00 5.5 13 Oeste 63 Sudoeste 2 -- -- 93
2019-11-14 06:00:00 5.2 14 Sudoeste 28 Sudoeste 1.8 -- -- 97
2019-11-14 05:00:00 4.9 15 Sudoeste 24 Sudoeste 1.2 -- -- 95
2019-11-14 04:00:00 6.8 22 Sudoeste 59 Sudoeste 0 -- -- 76
2019-11-14 03:00:00 7.7 23 Oeste 48 Oeste 0 -- -- 67
2019-11-14 02:00:00 7.4 13 Sudoeste 37 Oeste 0 -- -- 62
2019-11-14 01:00:00 5.9 7 Nordeste 18 Nordeste 0 -- -- 84
2019-11-14 00:00:00 6.3 4 Este 14 Norte 0 -- -- 86
2019-11-13 23:00:00 7 6 Este 9 Sudeste 0 -- -- 86
2019-11-13 22:00:00 7.8 7 Este 11 Nordeste 0 -- -- 84
2019-11-13 21:00:00 8.6 6 Este 14 Nordeste 0 -- -- 81
2019-11-13 20:00:00 10 3 Este 12 Sudeste 0 -- -- 76
2019-11-13 19:00:00 11.6 9 Sudeste 24 Sur 0 -- -- 67
2019-11-13 18:00:00 12.5 6 Sur 33 Sudoeste 0 -- -- 62
2019-11-13 17:00:00 12.9 14 Sur 30 Sudoeste 0 -- -- 60
2019-11-13 16:00:00 15.3 14 Oeste 26 Oeste 0 -- -- 58
2019-11-13 15:00:00 15.8 10 Oeste 22 Nordeste 0 -- -- 58
2019-11-13 14:00:00 14.6 10 Este 34 Este 0 -- -- 56
2019-11-13 13:00:00 13.3 23 Este 44 Este 0 -- -- 62
2019-11-13 12:00:00 11.6 27 Este 55 Norte 0 -- -- 67
2019-11-13 11:00:00 12.7 32 Norte 62 Norte 0 -- -- 62
2019-11-13 10:00:00 11.8 22 Norte 42 Norte 0 -- -- 68
2019-11-13 09:00:00 10.9 8 Noroeste 31 Norte 0 -- -- 80
2019-11-13 08:00:00 10.3 18 Norte 43 Nordeste 0.4 -- -- 84
2019-11-13 07:00:00 9 12 Norte 36 Sudoeste 0.6 -- -- 99
2019-11-13 06:00:00 8.5 4 Sur 13 Sudoeste 1 -- -- 99
2019-11-13 05:00:00 8.3 3 Noroeste 19 Oeste 1.4 -- -- 99
2019-11-13 04:00:00 8.1 12 Sudoeste 22 Sudoeste 2.6 -- -- 99
2019-11-13 03:00:00 8.1 13 Sudoeste 24 Sudoeste 3.4 -- -- 99
2019-11-13 02:00:00 8 12 Sudoeste 24 Oeste 2 -- -- 98
2019-11-13 01:00:00 7.8 14 Sudoeste 25 Sudoeste 1 -- -- 98
2019-11-13 00:00:00 7.7 14 Sudoeste 26 Sudoeste 0.4 -- -- 98
2019-11-12 23:00:00 7.5 16 Sudoeste 28 Oeste 0 -- -- 97
2019-11-12 22:00:00 7.7 14 Sudoeste 26 Sudoeste 0 -- -- 92
2019-11-12 21:00:00 7.8 16 Sudoeste 26 Sudoeste 0 -- -- 88
2019-11-12 20:00:00 7.8 4 Sudoeste 29 Sudoeste 0 -- -- 87
2019-11-12 19:00:00 9 14 Sur 47 Sudoeste 0 -- -- 80
2019-11-12 18:00:00 9.9 5 Sudoeste 16 Sur 0 -- -- 70
2019-11-12 17:00:00 11.2 5 Norte 14 Oeste 0 -- -- 59
2019-11-12 16:00:00 11 5 Oeste 26 Nordeste 0 -- -- 58
2019-11-12 15:00:00 10.3 13 Norte 32 Norte 0 -- -- 54
2019-11-12 14:00:00 10.8 19 Nordeste 40 Nordeste 0 -- -- 50
2019-11-12 13:00:00 10 22 Nordeste 39 Nordeste 0 -- -- 57
2019-11-12 12:00:00 8.8 22 Nordeste 36 Nordeste 0 -- -- 62
2019-11-12 11:00:00 7 24 Este 39 Nordeste 0 -- -- 75
2019-11-12 10:00:00 5.6 20 Nordeste 41 Nordeste 0 -- -- 81
2019-11-12 09:00:00 4.1 21 Nordeste 45 Este 0 -- -- 86
2019-11-12 08:00:00 3.1 29 Este 48 Este 0 -- -- 87
2019-11-12 07:00:00 4.7 26 Este 46 Este 0 -- -- 80
2019-11-12 06:00:00 4.9 24 Nordeste 51 Nordeste 0 -- -- 82
2019-11-12 05:00:00 5.6 18 Nordeste 39 Este 0 -- -- 79
2019-11-12 04:00:00 5.4 24 Este 44 Este 0 -- -- 79
2019-11-12 03:00:00 6.3 21 Este 41 Nordeste 0 -- -- 76
2019-11-12 02:00:00 6.3 28 Este 42 Este 0 -- -- 76
2019-11-12 01:00:00 6.7 18 Este 28 Este 0 -- -- 71
2019-11-12 00:00:00 7 13 Este 33 Este 0 -- -- 70
2019-11-11 23:00:00 7.3 16 Este 28 Este 0 -- -- 70
2019-11-11 22:00:00 7.7 17 Nordeste 28 Nordeste 0 -- -- 72
2019-11-11 21:00:00 9.6 17 Este 32 Este 0 -- -- 73
2019-11-11 20:00:00 10.6 20 Este 38 Este 0 -- -- 69
2019-11-11 19:00:00 10.6 18 Este 32 Este 0 -- -- 68
2019-11-11 18:00:00 11 17 Este 33 Este 0 -- -- 72
2019-11-11 17:00:00 11.9 18 Este 33 Este 0 -- -- 66
2019-11-11 16:00:00 12.3 18 Este 36 Nordeste 0 -- -- 63
2019-11-11 15:00:00 13 13 Nordeste 38 Este 0 -- -- 60
2019-11-11 14:00:00 11.7 5 Noroeste 13 Oeste 0 -- -- 84
2019-11-11 13:00:00 10.8 5 Sudoeste 13 Sudoeste 0 -- -- 86
2019-11-11 12:00:00 9 4 Sudoeste 16 Sudoeste 0 -- -- 91
2019-11-11 11:00:00 8.3 2 Oeste 10 Oeste 0 -- -- 92
2019-11-11 10:00:00 7.7 4 Sur 15 Sur 0 -- -- 90
2019-11-11 09:00:00 5.8 8 Sur 22 Nordeste 0 -- -- 91
2019-11-11 08:00:00 5 0 Calma 11 Norte 0 -- -- 93
2019-11-11 07:00:00 4.8 2 Norte 9 Sudoeste 0 -- -- 91
2019-11-11 06:00:00 7.1 11 Este 32 Este 0 -- -- 83
2019-11-11 05:00:00 5.9 16 Nordeste 41 Nordeste 0 -- -- 83
2019-11-11 04:00:00 5 24 Nordeste 39 Este 0 -- -- 85
2019-11-11 03:00:00 5.2 29 Nordeste 39 Nordeste 0 -- -- 83
2019-11-11 02:00:00 5.4 16 Nordeste 31 Nordeste 0 -- -- 82
2019-11-11 01:00:00 6 14 Nordeste 26 Nordeste 0 -- -- 77
2019-11-11 00:00:00 6.3 12 Nordeste 53 Este 0 -- -- 73